createdAt,value
2018-12-18T00:00:52.653Z,3.20
2018-12-18T00:03:20.822Z,3.10
2018-12-18T00:05:48.998Z,3.10
2018-12-18T00:08:17.170Z,3.00
2018-12-18T00:10:49.481Z,3.00
2018-12-18T00:13:17.725Z,2.90
2018-12-18T00:15:46.085Z,2.80
2018-12-18T00:18:14.240Z,2.80
2018-12-18T00:20:42.418Z,2.80
2018-12-18T00:23:10.564Z,2.80
2018-12-18T00:25:38.736Z,2.80
2018-12-18T00:28:06.893Z,2.80
2018-12-18T00:30:35.232Z,2.80
2018-12-18T00:33:03.472Z,2.80
2018-12-18T00:35:31.714Z,2.70
2018-12-18T00:37:59.856Z,2.70
2018-12-18T00:40:28.100Z,2.80
2018-12-18T00:42:56.240Z,2.70
2018-12-18T00:45:24.557Z,2.70
2018-12-18T00:47:52.696Z,2.70
2018-12-18T00:50:20.853Z,2.70
2018-12-18T00:52:49.000Z,2.80
2018-12-18T00:55:17.182Z,2.70
2018-12-18T00:57:45.345Z,2.80
2018-12-18T01:00:13.673Z,2.80
2018-12-18T01:02:41.852Z,2.80
2018-12-18T01:05:10.534Z,2.80
2018-12-18T01:07:38.766Z,2.80
2018-12-18T01:10:07.155Z,2.80
2018-12-18T01:12:35.315Z,2.90
2018-12-18T01:15:03.646Z,2.90
2018-12-18T01:17:31.809Z,2.90
2018-12-18T01:20:00.054Z,2.90
2018-12-18T01:22:28.224Z,3.00
2018-12-18T01:24:56.377Z,2.90
2018-12-18T01:27:24.539Z,2.90
2018-12-18T01:29:52.695Z,2.90
2018-12-18T01:32:20.918Z,2.90
2018-12-18T01:34:49.084Z,2.90
2018-12-18T01:37:17.274Z,2.90
2018-12-18T01:39:45.416Z,2.90
2018-12-18T01:42:13.570Z,2.90
2018-12-18T01:44:41.729Z,2.90
2018-12-18T01:47:09.872Z,2.90
2018-12-18T01:49:38.020Z,2.90
2018-12-18T01:52:06.212Z,3.00
2018-12-18T01:54:34.369Z,3.00
2018-12-18T01:57:02.521Z,3.00
2018-12-18T01:59:30.694Z,3.10
2018-12-18T02:01:58.858Z,3.10
2018-12-18T02:04:26.999Z,3.10
2018-12-18T02:06:55.241Z,3.10
2018-12-18T02:09:23.521Z,3.10
2018-12-18T02:11:51.786Z,3.10
2018-12-18T02:14:19.942Z,3.10
2018-12-18T02:16:48.113Z,3.10
2018-12-18T02:19:16.251Z,3.10
2018-12-18T02:21:44.569Z,3.10
2018-12-18T02:24:12.725Z,3.20
2018-12-18T02:26:40.881Z,3.20
2018-12-18T02:29:09.041Z,3.20
2018-12-18T02:31:37.211Z,3.20
2018-12-18T02:34:05.391Z,3.20
2018-12-18T02:36:33.701Z,3.20
2018-12-18T02:39:01.916Z,3.20
2018-12-18T02:41:30.078Z,3.20
2018-12-18T02:43:58.224Z,3.20
2018-12-18T02:46:26.399Z,3.20
2018-12-18T02:48:54.600Z,3.20
2018-12-18T02:51:22.779Z,3.20
2018-12-18T02:53:50.942Z,3.20
2018-12-18T02:56:19.090Z,3.20
2018-12-18T02:58:47.266Z,3.20
2018-12-18T03:01:15.493Z,3.20
2018-12-18T03:03:43.662Z,3.20
2018-12-18T03:06:11.842Z,3.20
2018-12-18T03:08:40.025Z,3.20
2018-12-18T03:11:10.174Z,3.20
2018-12-18T03:13:38.405Z,3.20
2018-12-18T03:16:06.560Z,3.30
2018-12-18T03:18:34.709Z,3.30
2018-12-18T03:21:02.945Z,3.30
2018-12-18T03:23:31.186Z,3.30
2018-12-18T03:25:59.358Z,3.30
2018-12-18T03:28:27.663Z,3.30
2018-12-18T03:30:57.501Z,3.30
2018-12-18T03:33:25.959Z,3.20
2018-12-18T03:35:54.096Z,3.30
2018-12-18T03:38:22.246Z,3.30
2018-12-18T03:40:50.388Z,3.30
2018-12-18T03:43:18.641Z,3.30
2018-12-18T03:45:46.920Z,3.30
2018-12-18T03:48:15.085Z,3.30
2018-12-18T03:50:43.251Z,3.30
2018-12-18T03:53:11.500Z,3.30
2018-12-18T03:55:39.770Z,3.30
2018-12-18T03:58:07.918Z,3.30
2018-12-18T04:00:36.191Z,3.30
2018-12-18T04:03:04.476Z,3.30
2018-12-18T04:05:32.641Z,3.40
2018-12-18T04:08:00.949Z,3.40
2018-12-18T04:10:29.186Z,3.40
2018-12-18T04:12:57.413Z,3.40
2018-12-18T04:15:25.658Z,3.50
2018-12-18T04:17:53.797Z,3.50
2018-12-18T04:20:21.961Z,3.50
2018-12-18T04:22:50.288Z,3.50
2018-12-18T04:25:18.447Z,3.50
2018-12-18T04:27:46.599Z,3.50
2018-12-18T04:30:14.751Z,3.50
2018-12-18T04:32:42.894Z,3.50
2018-12-18T04:35:11.045Z,3.50
2018-12-18T04:37:39.265Z,3.60
2018-12-18T04:40:07.707Z,3.60
2018-12-18T04:42:35.962Z,3.60
2018-12-18T04:45:04.439Z,3.60
2018-12-18T04:47:32.641Z,3.60
2018-12-18T04:50:00.990Z,3.60
2018-12-18T04:52:29.213Z,3.60
2018-12-18T04:54:57.359Z,3.60
2018-12-18T04:57:25.551Z,3.50
2018-12-18T04:59:53.704Z,3.50
2018-12-18T05:02:21.848Z,3.50
2018-12-18T05:04:50.717Z,3.50
2018-12-18T05:07:19.037Z,3.60
2018-12-18T05:09:47.171Z,3.60
2018-12-18T05:12:15.333Z,3.60
2018-12-18T05:14:43.543Z,3.60
2018-12-18T05:17:11.788Z,3.60
2018-12-18T05:19:40.009Z,3.60
2018-12-18T05:22:08.176Z,3.60
2018-12-18T05:24:36.311Z,3.60
2018-12-18T05:27:04.452Z,3.60
2018-12-18T05:29:32.631Z,3.60
2018-12-18T05:32:00.942Z,3.60
2018-12-18T05:34:29.187Z,3.60
2018-12-18T05:36:57.325Z,3.60
2018-12-18T05:39:25.505Z,3.50
2018-12-18T05:41:53.662Z,3.50
2018-12-18T05:44:21.808Z,3.50
2018-12-18T05:46:49.968Z,3.40
2018-12-18T05:49:18.125Z,3.40
2018-12-18T05:51:46.267Z,3.40
2018-12-18T05:54:14.420Z,3.40
2018-12-18T05:56:42.557Z,3.40
2018-12-18T05:59:10.729Z,3.40
2018-12-18T06:01:38.965Z,3.40
2018-12-18T06:04:07.104Z,3.30
2018-12-18T06:06:35.289Z,3.30
2018-12-18T06:09:05.391Z,3.30
2018-12-18T06:11:33.542Z,3.30
2018-12-18T06:14:01.898Z,3.30
2018-12-18T06:16:30.054Z,3.30
2018-12-18T06:18:58.282Z,3.30
2018-12-18T06:21:26.538Z,3.30
2018-12-18T06:23:54.668Z,3.20
2018-12-18T06:26:22.828Z,3.10
2018-12-18T06:28:51.043Z,3.00
2018-12-18T06:31:19.259Z,2.90
2018-12-18T06:33:47.409Z,2.90
2018-12-18T06:36:15.689Z,2.80
2018-12-18T06:38:43.837Z,2.80
2018-12-18T06:41:11.995Z,2.70
2018-12-18T06:43:40.222Z,2.70
2018-12-18T06:46:08.505Z,2.60
2018-12-18T06:48:36.654Z,2.60
2018-12-18T06:51:04.817Z,2.50
2018-12-18T06:53:32.962Z,2.50
2018-12-18T06:56:01.109Z,2.50
2018-12-18T06:58:29.266Z,2.40
2018-12-18T07:00:57.419Z,2.40
2018-12-18T07:03:25.563Z,2.40
2018-12-18T07:05:53.717Z,2.30
2018-12-18T07:08:22.016Z,2.30
2018-12-18T07:10:50.261Z,2.30
2018-12-18T07:13:18.408Z,2.20
2018-12-18T07:15:46.578Z,2.20
2018-12-18T07:18:14.722Z,2.10
2018-12-18T07:20:42.868Z,2.10
2018-12-18T07:23:11.024Z,2.10
2018-12-18T07:25:39.164Z,2.00
2018-12-18T07:28:07.308Z,2.00
2018-12-18T07:30:35.472Z,1.90
2018-12-18T07:33:03.840Z,1.90
2018-12-18T07:35:32.002Z,1.90
2018-12-18T07:38:00.144Z,1.90
2018-12-18T07:40:28.293Z,1.80
2018-12-18T07:42:56.539Z,1.80
2018-12-18T07:45:24.681Z,1.80
2018-12-18T07:47:52.842Z,1.80
2018-12-18T07:50:20.988Z,1.80
2018-12-18T07:52:49.162Z,1.80
2018-12-18T07:55:17.389Z,1.80
2018-12-18T07:57:45.545Z,1.80
2018-12-18T08:00:13.866Z,1.70
2018-12-18T08:02:42.037Z,1.70
2018-12-18T08:05:10.204Z,1.70
2018-12-18T08:07:38.386Z,1.70
2018-12-18T08:10:07.137Z,1.70
2018-12-18T08:12:35.284Z,1.70
2018-12-18T08:15:03.519Z,1.70
2018-12-18T08:17:31.776Z,1.70
2018-12-18T08:20:00.097Z,1.70
2018-12-18T08:22:28.266Z,1.70
2018-12-18T08:24:56.443Z,1.70
2018-12-18T08:27:24.613Z,1.60
2018-12-18T08:29:52.766Z,1.60
2018-12-18T08:32:20.951Z,1.60
2018-12-18T08:34:49.221Z,1.60
2018-12-18T08:37:17.397Z,1.50
2018-12-18T08:39:45.633Z,1.60
2018-12-18T08:42:13.805Z,1.50
2018-12-18T08:44:41.982Z,1.50
2018-12-18T08:47:10.150Z,1.50
2018-12-18T08:49:38.314Z,1.60
2018-12-18T08:52:06.530Z,1.50
2018-12-18T08:54:34.682Z,1.50
2018-12-18T08:57:03.042Z,1.50
2018-12-18T08:59:31.362Z,1.50
2018-12-18T09:01:59.533Z,1.50
2018-12-18T09:04:27.692Z,1.50
2018-12-18T09:06:55.925Z,1.60
2018-12-18T09:09:24.150Z,1.50
2018-12-18T09:11:52.330Z,1.50
2018-12-18T09:14:20.505Z,1.60
2018-12-18T09:16:54.337Z,1.50
2018-12-18T09:19:22.503Z,1.50
2018-12-18T09:21:50.666Z,1.50
2018-12-18T09:24:18.834Z,1.50
2018-12-18T09:26:46.972Z,1.50
2018-12-18T09:29:15.124Z,1.50
2018-12-18T09:31:43.283Z,1.50
2018-12-18T09:34:11.526Z,1.50
2018-12-18T09:36:39.758Z,1.50
2018-12-18T09:39:13.726Z,1.60
2018-12-18T09:41:43.872Z,1.50
2018-12-18T09:44:16.054Z,1.50
2018-12-18T09:46:44.498Z,1.50
2018-12-18T09:49:12.673Z,1.50
2018-12-18T09:51:41.051Z,1.50
2018-12-18T09:54:09.292Z,1.50
2018-12-18T09:56:42.961Z,1.60
2018-12-18T09:59:11.121Z,1.60
2018-12-18T10:01:39.351Z,1.70
2018-12-18T10:04:07.668Z,1.80
2018-12-18T10:06:35.812Z,1.90
2018-12-18T10:09:09.722Z,1.90
2018-12-18T10:11:37.455Z,1.90
2018-12-18T10:14:05.690Z,2.00
2018-12-18T10:16:33.902Z,2.00
2018-12-18T10:19:02.064Z,2.10
2018-12-18T10:21:30.250Z,2.10
2018-12-18T10:23:58.496Z,2.10
2018-12-18T10:26:26.647Z,2.20
2018-12-18T10:28:54.800Z,2.20
2018-12-18T10:31:22.962Z,2.30
2018-12-18T10:33:51.218Z,2.40
2018-12-18T10:36:19.391Z,2.50
2018-12-18T10:38:47.596Z,2.60
2018-12-18T10:41:15.826Z,2.70
2018-12-18T10:43:44.065Z,2.90
2018-12-18T10:46:12.223Z,2.90
2018-12-18T10:48:40.424Z,3.00
2018-12-18T10:51:08.617Z,3.00
2018-12-18T10:53:37.050Z,3.10
2018-12-18T10:56:05.388Z,3.10
2018-12-18T10:58:33.646Z,3.10
2018-12-18T11:01:07.166Z,3.20
2018-12-18T11:03:35.501Z,3.30
2018-12-18T11:06:09.595Z,3.40
2018-12-18T11:08:34.002Z,3.50
2018-12-18T11:11:02.233Z,3.50
2018-12-18T11:13:30.420Z,3.60
2018-12-18T11:15:58.648Z,3.70
2018-12-18T11:18:26.882Z,3.70
2018-12-18T11:20:55.127Z,3.70
2018-12-18T11:23:23.274Z,3.70
2018-12-18T11:25:51.417Z,3.70
2018-12-18T11:28:19.580Z,3.80
2018-12-18T11:30:47.792Z,3.80
2018-12-18T11:33:16.400Z,3.90
2018-12-18T11:35:44.644Z,3.90
2018-12-18T11:38:12.787Z,3.90
2018-12-18T11:40:40.941Z,4.00
2018-12-18T11:43:09.101Z,4.00
2018-12-18T11:45:37.242Z,4.00
2018-12-18T11:48:05.376Z,4.10
2018-12-18T11:50:33.641Z,4.10
2018-12-18T11:53:01.841Z,4.10
2018-12-18T11:55:30.076Z,4.20
2018-12-18T11:57:58.222Z,4.20
2018-12-18T12:00:26.529Z,4.30
2018-12-18T12:02:54.686Z,4.30
2018-12-18T12:05:22.852Z,4.30
2018-12-18T12:07:50.993Z,4.30
2018-12-18T12:10:19.143Z,4.40
2018-12-18T12:12:47.373Z,4.40
2018-12-18T12:15:15.601Z,4.40
2018-12-18T12:17:43.925Z,4.40
2018-12-18T12:20:12.266Z,4.40
2018-12-18T12:22:40.541Z,4.40
2018-12-18T12:25:08.905Z,4.40
2018-12-18T12:27:42.560Z,4.30
2018-12-18T12:30:10.906Z,4.30
2018-12-18T12:32:39.033Z,4.40
2018-12-18T12:35:07.202Z,4.40
2018-12-18T12:37:35.346Z,4.50
2018-12-18T12:40:04.019Z,4.40
2018-12-18T12:42:32.156Z,4.40
2018-12-18T12:45:00.311Z,4.50
2018-12-18T12:47:28.452Z,4.50
2018-12-18T12:49:56.624Z,4.40
2018-12-18T12:52:31.366Z,4.40
2018-12-18T12:54:59.520Z,4.40
2018-12-18T12:57:27.658Z,4.40
2018-12-18T12:59:55.829Z,4.50
2018-12-18T13:02:23.952Z,4.50
2018-12-18T13:04:52.105Z,4.60
2018-12-18T13:07:20.249Z,4.60
2018-12-18T13:09:48.492Z,4.60
2018-12-18T13:12:16.645Z,4.60
2018-12-18T13:14:44.872Z,4.60
2018-12-18T13:17:13.031Z,4.50
2018-12-18T13:19:41.256Z,4.40
2018-12-18T13:22:09.391Z,4.50
2018-12-18T13:24:37.558Z,4.60
2018-12-18T13:27:05.699Z,4.70
2018-12-18T13:29:34.219Z,4.70
2018-12-18T13:32:02.365Z,4.70
2018-12-18T13:34:30.636Z,4.70
2018-12-18T13:36:58.861Z,4.70
2018-12-18T13:39:27.000Z,4.70
2018-12-18T13:41:55.185Z,4.80
2018-12-18T13:44:23.330Z,4.70
2018-12-18T13:46:51.497Z,4.70
2018-12-18T13:49:19.644Z,4.70
2018-12-18T13:51:47.798Z,4.80
2018-12-18T13:54:16.039Z,4.80
2018-12-18T13:56:44.293Z,4.80
2018-12-18T13:59:12.437Z,4.80
2018-12-18T14:01:40.565Z,4.70
2018-12-18T14:04:08.739Z,4.70
2018-12-18T14:06:37.245Z,4.70
2018-12-18T14:09:08.180Z,4.70
2018-12-18T14:11:36.416Z,4.70
2018-12-18T14:14:04.771Z,4.50
2018-12-18T14:16:33.007Z,4.60
2018-12-18T14:19:01.156Z,4.60
2018-12-18T14:21:29.609Z,4.70
2018-12-18T14:23:57.766Z,4.60
2018-12-18T14:26:25.919Z,4.60
2018-12-18T14:28:54.047Z,4.50
2018-12-18T14:31:22.205Z,4.50
2018-12-18T14:33:50.429Z,4.50
2018-12-18T14:36:18.595Z,4.40
2018-12-18T14:38:46.736Z,4.30
2018-12-18T14:41:14.898Z,4.20
2018-12-18T14:43:43.125Z,4.30
2018-12-18T14:46:11.304Z,4.20
2018-12-18T14:48:39.471Z,4.20
2018-12-18T14:51:07.692Z,4.20
2018-12-18T14:56:10.542Z,4.20
2018-12-18T14:58:38.661Z,4.20
2018-12-18T15:01:06.905Z,4.10
2018-12-18T15:03:35.119Z,4.10
2018-12-18T15:06:03.284Z,4.10
2018-12-18T15:08:31.477Z,4.00
2018-12-18T15:10:59.618Z,4.00
2018-12-18T15:13:29.728Z,4.00
2018-12-18T15:15:57.921Z,4.00
2018-12-18T15:18:26.052Z,3.90
2018-12-18T15:20:54.219Z,3.90
2018-12-18T15:23:22.357Z,3.90
2018-12-18T15:25:50.498Z,3.80
2018-12-18T15:28:18.721Z,3.80
2018-12-18T15:30:46.957Z,3.90
2018-12-18T15:33:15.098Z,3.80
2018-12-18T15:35:43.319Z,3.80
2018-12-18T15:38:11.482Z,3.70
2018-12-18T15:40:39.822Z,3.70
2018-12-18T15:43:07.946Z,3.70
2018-12-18T15:45:42.917Z,3.60
2018-12-18T15:48:11.043Z,3.60
2018-12-18T15:50:39.315Z,3.60
2018-12-18T15:53:07.474Z,3.50
2018-12-18T15:55:35.698Z,3.60
2018-12-18T15:58:03.928Z,3.50
2018-12-18T16:00:32.070Z,3.40
2018-12-18T16:03:00.312Z,3.40
2018-12-18T16:05:28.482Z,3.40
2018-12-18T16:07:56.761Z,3.40
2018-12-18T16:10:24.884Z,3.50
2018-12-18T16:12:53.061Z,3.40
2018-12-18T16:15:21.240Z,3.40
2018-12-18T16:17:49.401Z,3.40
2018-12-18T16:20:17.550Z,3.40
2018-12-18T16:22:45.724Z,3.40
2018-12-18T16:25:13.895Z,3.40
2018-12-18T16:27:42.133Z,3.40
2018-12-18T16:30:10.355Z,3.40
2018-12-18T16:32:38.525Z,3.40
2018-12-18T16:35:06.761Z,3.30
2018-12-18T16:37:34.945Z,3.30
2018-12-18T16:40:03.282Z,3.20
2018-12-18T16:42:31.432Z,3.30
2018-12-18T16:44:59.574Z,3.30
2018-12-18T16:47:28.668Z,3.30
2018-12-18T16:49:56.890Z,3.30
2018-12-18T16:52:25.901Z,3.20
2018-12-18T16:54:54.069Z,3.20
2018-12-18T16:57:22.229Z,3.20
2018-12-18T16:59:50.374Z,3.20
2018-12-18T17:02:18.972Z,3.20
2018-12-18T17:04:47.137Z,3.20
2018-12-18T17:07:15.305Z,3.20
2018-12-18T17:09:43.533Z,3.20
2018-12-18T17:12:11.742Z,3.20
2018-12-18T17:14:39.892Z,3.20
2018-12-18T17:17:08.062Z,3.20
2018-12-18T17:19:36.225Z,3.20
2018-12-18T17:22:04.448Z,3.20
2018-12-18T17:24:32.626Z,3.10
2018-12-18T17:27:00.793Z,3.00
2018-12-18T17:29:28.941Z,3.00
2018-12-18T17:31:57.080Z,3.10
2018-12-18T17:34:25.228Z,3.00
2018-12-18T17:36:53.448Z,3.00
2018-12-18T17:39:21.704Z,3.00
2018-12-18T17:41:49.929Z,3.00
2018-12-18T17:44:18.064Z,3.00
2018-12-18T17:46:46.209Z,3.00
2018-12-18T17:49:14.345Z,3.00
2018-12-18T17:51:42.667Z,3.00
2018-12-18T17:54:10.808Z,3.00
2018-12-18T17:56:38.970Z,3.00
2018-12-18T17:59:07.210Z,3.00
2018-12-18T18:01:35.561Z,3.00
2018-12-18T18:04:03.799Z,3.00
2018-12-18T18:06:31.928Z,3.00
2018-12-18T18:09:00.074Z,3.10
2018-12-18T18:11:28.235Z,3.00
2018-12-18T18:13:56.452Z,3.00
2018-12-18T18:16:24.643Z,3.00
2018-12-18T18:18:52.872Z,3.00
2018-12-18T18:21:21.074Z,3.10
2018-12-18T18:23:49.230Z,3.10
2018-12-18T18:26:17.545Z,3.10
2018-12-18T18:28:45.694Z,3.10
2018-12-18T18:31:13.823Z,3.10
2018-12-18T18:33:41.963Z,3.10
2018-12-18T18:38:52.067Z,3.10
2018-12-18T18:41:20.255Z,3.10
2018-12-18T18:43:48.495Z,3.10
2018-12-18T18:46:16.656Z,3.10
2018-12-18T18:48:44.798Z,3.10
2018-12-18T18:51:13.172Z,3.10
2018-12-18T18:53:41.361Z,3.10
2018-12-18T18:56:09.761Z,3.10
2018-12-18T18:58:37.912Z,3.10
2018-12-18T19:01:06.070Z,3.10
2018-12-18T19:03:34.220Z,3.10
2018-12-18T19:06:02.434Z,3.10
2018-12-18T19:08:30.587Z,3.10
2018-12-18T19:10:58.788Z,3.10
2018-12-18T19:13:26.940Z,3.10
2018-12-18T19:15:55.175Z,3.10
2018-12-18T19:18:23.326Z,3.10
2018-12-18T19:20:51.468Z,3.20
2018-12-18T19:23:19.694Z,3.10
2018-12-18T19:25:47.816Z,3.10
2018-12-18T19:28:15.972Z,3.10
2018-12-18T19:30:45.094Z,3.10
2018-12-18T19:33:13.267Z,3.10
2018-12-18T19:35:41.504Z,3.10
2018-12-18T19:38:09.655Z,3.10
2018-12-18T19:40:37.860Z,3.10
2018-12-18T19:43:06.036Z,3.10
2018-12-18T19:45:34.184Z,3.10
2018-12-18T19:48:02.342Z,3.10
2018-12-18T19:50:30.490Z,3.10
2018-12-18T19:52:58.742Z,3.10
2018-12-18T19:55:26.990Z,3.10
2018-12-18T19:57:55.158Z,3.10
2018-12-18T20:00:23.384Z,3.00
2018-12-18T20:02:51.548Z,3.00
2018-12-18T20:05:19.805Z,3.00
2018-12-18T20:07:48.092Z,3.00
2018-12-18T20:10:17.356Z,3.00
2018-12-18T20:12:45.497Z,3.00
2018-12-18T20:15:13.790Z,3.00
2018-12-18T20:17:41.932Z,3.00
2018-12-18T20:20:10.363Z,3.00
2018-12-18T20:22:38.517Z,3.00
2018-12-18T20:25:06.831Z,3.00
2018-12-18T20:27:35.052Z,2.90
2018-12-18T20:30:03.368Z,2.90
2018-12-18T20:32:31.536Z,2.90
2018-12-18T20:34:59.731Z,2.80
2018-12-18T20:37:27.951Z,2.80
2018-12-18T20:39:56.109Z,2.70
2018-12-18T20:42:24.262Z,2.70
2018-12-18T20:44:52.507Z,2.70
2018-12-18T20:47:20.661Z,2.70
2018-12-18T20:49:48.818Z,2.70
2018-12-18T20:52:16.978Z,2.60
2018-12-18T20:54:45.138Z,2.60
2018-12-18T20:57:13.296Z,2.50
2018-12-18T20:59:41.444Z,2.50
2018-12-18T21:02:09.588Z,2.50
2018-12-18T21:04:38.040Z,2.50
2018-12-18T21:07:06.265Z,2.50
2018-12-18T21:09:34.483Z,2.50
2018-12-18T21:12:02.796Z,2.50
2018-12-18T21:14:31.030Z,2.50
2018-12-18T21:16:59.358Z,2.50
2018-12-18T21:19:27.575Z,2.50
2018-12-18T21:21:55.880Z,2.50
2018-12-18T21:24:24.102Z,2.50
2018-12-18T21:26:52.327Z,2.50
2018-12-18T21:29:20.632Z,2.50
2018-12-18T21:31:48.841Z,2.50
2018-12-18T21:34:17.063Z,2.50
2018-12-18T21:36:45.344Z,2.50
2018-12-18T21:39:13.608Z,2.50
2018-12-18T21:41:41.871Z,2.50
2018-12-18T21:44:10.173Z,2.50
2018-12-18T21:46:38.380Z,2.60
2018-12-18T21:49:06.595Z,2.50
2018-12-18T21:51:34.801Z,2.50
2018-12-18T21:54:03.026Z,2.50
2018-12-18T21:56:31.241Z,2.50
2018-12-18T21:58:59.536Z,2.60
2018-12-18T22:01:27.746Z,2.50
2018-12-18T22:03:55.976Z,2.50
2018-12-18T22:06:24.205Z,2.50
2018-12-18T22:08:52.427Z,2.50
2018-12-18T22:11:20.654Z,2.50
2018-12-18T22:13:48.867Z,2.50
2018-12-18T22:16:17.192Z,2.50
2018-12-18T22:18:45.425Z,2.50
2018-12-18T22:21:13.769Z,2.40
2018-12-18T22:23:42.067Z,2.40
2018-12-18T22:26:10.233Z,2.50
2018-12-18T22:28:38.377Z,2.50
2018-12-18T22:31:06.703Z,2.50
2018-12-18T22:33:34.847Z,2.50
2018-12-18T22:36:02.992Z,2.60
2018-12-18T22:38:31.132Z,2.50
2018-12-18T22:40:59.398Z,2.50
2018-12-18T22:43:27.524Z,2.50
2018-12-18T22:45:55.669Z,2.50
2018-12-18T22:48:23.812Z,2.40
2018-12-18T22:50:51.955Z,2.50
2018-12-18T22:53:20.084Z,2.50
2018-12-18T22:55:48.236Z,2.50
2018-12-18T22:58:16.466Z,2.40
2018-12-18T23:00:55.868Z,2.50
2018-12-18T23:03:24.005Z,2.40
2018-12-18T23:05:52.246Z,2.30
2018-12-18T23:08:20.381Z,2.30
2018-12-18T23:10:48.528Z,2.30
2018-12-18T23:13:23.107Z,2.30
2018-12-18T23:15:51.378Z,2.30
2018-12-18T23:18:19.682Z,2.30
2018-12-18T23:20:47.850Z,2.30
2018-12-18T23:23:16.157Z,2.30
2018-12-18T23:25:44.398Z,2.30
2018-12-18T23:28:12.546Z,2.30
2018-12-18T23:30:40.692Z,2.30
2018-12-18T23:33:08.933Z,2.30
2018-12-18T23:35:37.083Z,2.30
2018-12-18T23:38:05.224Z,2.20
2018-12-18T23:40:33.389Z,2.20
2018-12-18T23:43:01.900Z,2.20
2018-12-18T23:45:30.066Z,2.20
2018-12-18T23:47:58.225Z,2.10
2018-12-18T23:50:26.467Z,2.10
2018-12-18T23:52:54.619Z,2.20
2018-12-18T23:55:22.786Z,2.10
2018-12-18T23:57:50.923Z,2.10
